Time;durP1;ratioP1;P1;durP2;ratioP2;P2;SDS_P1;SDS_P2;PMS_P1;PMS_P2;Temp;Humidity;BMP_temperature;BMP_pressure;BME280_temperature;BME280_humidity;BME280_pressure;Samples;Min_cycle;Max_cycle;Signal;HPM_P1;HPM_P2
2023/10/30 00:01:23;;;;;;;2.75;1.60;;;10.80;99.90;;;;;;4956157;28;20292;-87
2023/10/30 00:03:50;;;;;;;3.20;1.60;;;10.90;99.90;;;;;;4957016;28;20224;-87
2023/10/30 00:06:15;;;;;;;2.78;1.58;;;10.90;99.90;;;;;;4956193;28;20178;-87
2023/10/30 00:08:41;;;;;;;2.30;1.58;;;10.90;99.90;;;;;;4956019;28;20356;-87
2023/10/30 00:11:29;;;;;;;1.75;1.65;;;10.90;99.90;;;;;;4956476;28;20272;-87
2023/10/30 00:13:55;;;;;;;1.50;1.40;;;10.90;99.90;;;;;;4956443;28;20173;-87
2023/10/30 00:16:21;;;;;;;2.13;1.23;;;10.90;99.90;;;;;;4956628;28;20276;-87
2023/10/30 00:18:47;;;;;;;3.28;1.30;;;10.90;99.90;;;;;;4955795;28;20210;-87
2023/10/30 00:21:13;;;;;;;4.45;1.30;;;10.90;99.90;;;;;;4956269;28;20186;-87
2023/10/30 00:23:39;;;;;;;3.80;1.38;;;10.90;99.90;;;;;;4955774;28;20193;-87
2023/10/30 00:26:05;;;;;;;3.65;1.58;;;10.80;99.90;;;;;;4955768;28;20280;-87
2023/10/30 00:28:31;;;;;;;2.20;1.70;;;10.80;99.90;;;;;;4955829;28;20221;-87
2023/10/30 00:30:57;;;;;;;5.50;1.60;;;10.70;99.90;;;;;;4938138;29;20186;-87
2023/10/30 00:33:22;;;;;;;1.70;1.60;;;10.80;99.90;;;;;;4936670;29;20273;-87
2023/10/30 00:35:48;;;;;;;2.67;1.50;;;10.70;99.90;;;;;;4937116;29;20221;-87
2023/10/30 00:38:14;;;;;;;2.33;1.63;;;10.70;99.90;;;;;;4936945;29;20261;-87
2023/10/30 00:40:40;;;;;;;3.88;1.67;;;10.80;99.90;;;;;;4936867;29;20186;-87
2023/10/30 00:43:05;;;;;;;1.60;1.50;;;10.80;99.90;;;;;;4937556;29;20274;-87
2023/10/30 00:45:32;;;;;;;2.83;1.52;;;10.80;99.90;;;;;;4936634;29;20180;-87
2023/10/30 00:47:59;;;;;;;3.22;1.63;;;10.90;99.90;;;;;;4936558;29;20209;-87
2023/10/30 00:50:33;;;;;;;6.03;1.42;;;11.00;99.90;;;;;;4937776;29;20185;-87
2023/10/30 00:53:00;;;;;;;3.78;1.50;;;11.00;99.90;;;;;;4936555;29;20182;-87
2023/10/30 00:55:26;;;;;;;1.75;1.65;;;11.10;99.90;;;;;;4936644;29;20187;-87
2023/10/30 00:57:52;;;;;;;1.73;1.50;;;11.10;99.90;;;;;;4936442;29;20577;-87
2023/10/30 01:00:18;;;;;;;5.05;1.70;;;11.10;99.90;;;;;;4936237;29;20178;-87
2023/10/30 01:02:44;;;;;;;6.10;2.08;;;11.20;99.90;;;;;;4936781;29;20182;-89
2023/10/30 01:05:10;;;;;;;3.67;1.70;;;11.20;99.90;;;;;;4935985;29;20651;-89
2023/10/30 01:07:36;;;;;;;2.70;1.75;;;11.20;99.90;;;;;;4936093;29;20198;-89
2023/10/30 01:10:02;;;;;;;4.00;1.50;;;11.20;99.90;;;;;;4945466;29;20181;-89
2023/10/30 01:12:28;;;;;;;3.60;1.55;;;11.20;99.90;;;;;;4955839;28;20177;-89
2023/10/30 01:14:53;;;;;;;3.33;1.67;;;11.20;99.90;;;;;;4955114;28;20550;-90
2023/10/30 01:17:19;;;;;;;8.55;1.90;;;11.20;99.90;;;;;;4954650;28;20208;-89
2023/10/30 01:19:45;;;;;;;4.93;1.80;;;11.10;99.90;;;;;;4955482;28;20212;-89
2023/10/30 01:22:10;;;;;;;4.70;1.85;;;11.10;99.90;;;;;;4955137;28;20182;-89
2023/10/30 01:24:36;;;;;;;3.58;1.65;;;11.10;99.90;;;;;;4955039;28;20174;-89
2023/10/30 01:27:02;;;;;;;2.15;1.48;;;11.10;99.90;;;;;;4955034;28;20189;-88
2023/10/30 01:29:27;;;;;;;2.90;1.23;;;11.10;99.90;;;;;;4954739;28;20272;-88
2023/10/30 01:31:53;;;;;;;5.30;1.55;;;11.10;99.90;;;;;;4954709;28;20190;-88
2023/10/30 01:34:19;;;;;;;5.47;1.42;;;11.20;99.90;;;;;;4953967;28;20186;-88
2023/10/30 01:36:44;;;;;;;4.30;1.42;;;11.20;99.90;;;;;;4955219;28;20189;-88
2023/10/30 01:39:10;;;;;;;3.70;1.70;;;11.20;99.90;;;;;;4954334;28;20232;-88
2023/10/30 01:41:35;;;;;;;5.55;1.70;;;11.20;99.90;;;;;;4954864;28;20181;-89
2023/10/30 01:44:01;;;;;;;3.33;1.27;;;11.10;99.90;;;;;;4955364;28;20216;-89
2023/10/30 01:46:27;;;;;;;2.75;1.67;;;11.10;99.90;;;;;;4954194;28;20239;-89
2023/10/30 01:48:52;;;;;;;4.15;1.42;;;11.10;99.90;;;;;;4954527;28;20212;-89
2023/10/30 01:51:20;;;;;;;1.95;1.25;;;11.10;99.90;;;;;;4955109;28;20272;-89
2023/10/30 01:53:47;;;;;;;6.20;1.48;;;11.10;99.90;;;;;;4954982;28;20178;-89
2023/10/30 01:56:14;;;;;;;5.10;1.67;;;11.10;99.90;;;;;;4954941;28;20181;-89
2023/10/30 01:58:40;;;;;;;4.78;1.30;;;11.10;99.90;;;;;;4954745;28;20221;-89
2023/10/30 02:22:56;;;;;;;3.70;1.52;;;11.10;99.90;;;;;;4915806;29;20211;-86
2023/10/30 02:25:23;;;;;;;4.03;1.40;;;11.20;99.90;;;;;;4916104;29;20183;-86
2023/10/30 02:27:52;;;;;;;4.30;1.45;;;11.20;99.90;;;;;;4915747;29;20178;-86
2023/10/30 02:30:19;;;;;;;1.83;1.30;;;11.20;99.90;;;;;;4920647;29;20202;-86
2023/10/30 02:32:47;;;;;;;3.33;1.27;;;11.20;99.90;;;;;;4935071;29;20174;-86
2023/10/30 02:35:13;;;;;;;4.28;1.77;;;11.20;99.90;;;;;;4935616;29;20202;-86
2023/10/30 02:37:39;;;;;;;2.45;1.30;;;11.20;99.90;;;;;;4934564;29;20178;-86
2023/10/30 02:40:05;;;;;;;3.47;1.48;;;11.20;99.90;;;;;;4935437;29;20296;-86
2023/10/30 02:42:31;;;;;;;4.32;1.40;;;11.20;99.90;;;;;;4934515;29;20233;-86
2023/10/30 02:44:57;;;;;;;2.67;1.67;;;11.20;99.90;;;;;;4934934;29;20186;-86
2023/10/30 02:47:23;;;;;;;4.80;1.35;;;11.30;99.90;;;;;;4937102;29;20288;-86
2023/10/30 02:49:49;;;;;;;4.18;1.40;;;11.30;99.90;;;;;;4938389;29;20178;-86
2023/10/30 02:52:14;;;;;;;4.15;1.63;;;11.20;99.90;;;;;;4938177;29;20183;-86
2023/10/30 02:54:40;;;;;;;3.55;1.45;;;11.30;99.90;;;;;;4938366;29;20633;-86
2023/10/30 02:57:06;;;;;;;1.65;1.40;;;11.30;99.90;;;;;;4938320;29;20550;-86
2023/10/30 02:59:31;;;;;;;2.90;1.20;;;11.30;99.90;;;;;;4938129;29;20579;-86
2023/10/30 03:01:58;;;;;;;5.30;1.40;;;11.30;99.90;;;;;;4938290;29;20194;-86
2023/10/30 03:04:24;;;;;;;3.40;1.60;;;11.40;99.90;;;;;;4938342;29;20186;-86
2023/10/30 03:06:50;;;;;;;3.10;1.75;;;11.40;99.90;;;;;;4938223;29;20182;-86
2023/10/30 03:09:15;;;;;;;3.30;1.40;;;11.30;99.90;;;;;;4938019;29;20182;-86
2023/10/30 03:11:41;;;;;;;3.70;1.77;;;11.40;99.90;;;;;;4937963;29;20547;-86
2023/10/30 03:14:06;;;;;;;4.80;1.60;;;11.30;99.90;;;;;;4937610;29;20277;-87
2023/10/30 03:16:32;;;;;;;3.08;1.55;;;11.40;99.90;;;;;;4937771;29;20246;-87
2023/10/30 03:18:58;;;;;;;3.58;1.63;;;11.40;99.90;;;;;;4937612;29;20208;-86
2023/10/30 03:21:23;;;;;;;2.22;1.50;;;11.40;99.90;;;;;;4938109;29;20261;-87
2023/10/30 03:23:49;;;;;;;3.20;1.77;;;11.40;99.90;;;;;;4938151;29;20210;-87
2023/10/30 03:26:15;;;;;;;3.55;1.60;;;11.40;99.90;;;;;;4938094;29;20182;-87
2023/10/30 03:28:40;;;;;;;5.43;1.80;;;11.40;99.90;;;;;;4937576;29;20250;-86
2023/10/30 03:31:09;;;;;;;4.22;1.70;;;11.30;99.90;;;;;;4937848;29;20202;-86
2023/10/30 03:33:36;;;;;;;2.60;1.52;;;11.30;99.90;;;;;;4937889;29;20285;-86
2023/10/30 03:36:03;;;;;;;4.93;1.52;;;11.30;99.90;;;;;;4938276;29;20182;-86
2023/10/30 03:38:29;;;;;;;4.10;1.80;;;11.30;99.90;;;;;;4937870;29;20209;-86
2023/10/30 03:40:54;;;;;;;2.72;1.42;;;11.20;99.90;;;;;;4937819;29;20202;-86
2023/10/30 03:43:20;;;;;;;3.53;1.70;;;11.20;99.90;;;;;;4937192;29;20269;-86
2023/10/30 03:45:45;;;;;;;3.03;1.60;;;11.20;99.90;;;;;;4938551;29;20200;-86
2023/10/30 03:48:11;;;;;;;3.55;1.63;;;11.20;99.90;;;;;;4938804;29;20181;-86
2023/10/30 03:50:37;;;;;;;2.10;1.48;;;11.20;99.90;;;;;;4937804;29;20202;-86
2023/10/30 03:53:02;;;;;;;3.85;1.67;;;11.20;99.90;;;;;;4937801;29;20185;-86
2023/10/30 03:55:28;;;;;;;2.60;1.50;;;11.20;99.90;;;;;;4937529;29;20273;-86
2023/10/30 03:57:54;;;;;;;2.95;1.80;;;11.10;99.90;;;;;;4936995;29;20186;-86
2023/10/30 04:00:20;;;;;;;2.20;1.67;;;11.20;99.90;;;;;;4936642;29;20205;-87
2023/10/30 04:02:45;;;;;;;2.40;1.67;;;11.10;99.90;;;;;;4937583;29;20182;-86
2023/10/30 04:05:12;;;;;;;3.05;1.50;;;11.10;99.90;;;;;;4955287;29;20184;-86
2023/10/30 04:07:39;;;;;;;2.13;1.52;;;11.10;99.90;;;;;;4956022;29;20268;-86
2023/10/30 04:10:05;;;;;;;3.13;1.60;;;11.10;99.90;;;;;;4956475;29;20682;-86
2023/10/30 04:12:31;;;;;;;3.83;1.60;;;11.10;99.90;;;;;;4939045;29;20210;-86
2023/10/30 04:14:57;;;;;;;2.53;1.50;;;11.10;99.90;;;;;;4937903;29;20178;-86
2023/10/30 04:17:23;;;;;;;3.63;1.60;;;11.10;99.90;;;;;;4936805;29;20174;-86
2023/10/30 04:19:49;;;;;;;2.55;1.65;;;11.10;99.90;;;;;;4936414;29;20227;-86
2023/10/30 04:22:15;;;;;;;4.05;1.83;;;11.10;99.90;;;;;;4951416;29;20220;-86
2023/10/30 04:24:40;;;;;;;3.53;1.70;;;11.10;99.90;;;;;;4956364;29;20182;-86
2023/10/30 04:27:06;;;;;;;6.95;1.80;;;11.10;99.90;;;;;;4956440;29;20174;-86
2023/10/30 04:29:32;;;;;;;4.00;1.58;;;11.10;99.90;;;;;;4955999;29;20185;-86
2023/10/30 04:31:57;;;;;;;5.18;1.52;;;11.10;99.90;;;;;;4944026;29;20742;-86
2023/10/30 04:34:23;;;;;;;4.45;1.77;;;11.20;99.90;;;;;;4936407;29;20305;-86
2023/10/30 04:36:49;;;;;;;3.25;1.50;;;11.20;99.90;;;;;;4937079;29;20182;-86
2023/10/30 04:39:14;;;;;;;4.63;1.70;;;11.20;99.90;;;;;;4936273;29;20202;-86
2023/10/30 04:41:40;;;;;;;6.32;1.60;;;11.20;99.90;;;;;;4946038;29;20202;-87
2023/10/30 04:44:06;;;;;;;3.00;1.80;;;11.20;99.90;;;;;;4955694;29;20178;-88
2023/10/30 04:46:32;;;;;;;3.95;1.63;;;11.20;99.90;;;;;;4955446;29;20265;-88
2023/10/30 04:48:57;;;;;;;5.28;1.63;;;11.20;99.90;;;;;;4955933;29;20188;-88
2023/10/30 04:51:25;;;;;;;5.63;1.73;;;11.10;99.90;;;;;;4948846;29;20214;-88
2023/10/30 04:53:51;;;;;;;3.33;1.60;;;11.10;99.90;;;;;;4936084;29;20209;-86
2023/10/30 04:56:17;;;;;;;3.53;1.60;;;11.10;99.90;;;;;;4937194;29;20209;-86
2023/10/30 04:58:42;;;;;;;5.07;1.70;;;11.10;99.90;;;;;;4936161;29;20205;-86
2023/10/30 05:01:09;;;;;;;4.93;1.80;;;11.10;99.90;;;;;;4935803;29;20205;-86
2023/10/30 05:03:36;;;;;;;5.88;1.60;;;11.10;99.90;;;;;;4936697;29;20179;-86
2023/10/30 05:06:02;;;;;;;4.30;1.70;;;11.20;99.90;;;;;;4935821;29;20182;-86
2023/10/30 05:08:28;;;;;;;3.70;1.48;;;11.20;99.90;;;;;;4936599;29;20186;-86
2023/10/30 05:10:53;;;;;;;5.78;1.50;;;11.20;99.90;;;;;;4937530;29;20209;-86
2023/10/30 05:13:20;;;;;;;6.90;1.75;;;11.20;99.90;;;;;;4955054;29;20201;-86
2023/10/30 05:15:46;;;;;;;7.22;1.52;;;11.20;99.90;;;;;;4955003;29;20212;-86
2023/10/30 05:18:12;;;;;;;3.33;1.42;;;11.20;99.90;;;;;;4955199;29;20205;-86
2023/10/30 05:20:38;;;;;;;2.08;1.33;;;11.20;99.90;;;;;;4954897;29;20205;-87
2023/10/30 05:23:03;;;;;;;3.83;1.67;;;11.20;99.90;;;;;;4936405;29;20170;-86
2023/10/30 05:25:29;;;;;;;4.57;1.52;;;11.20;99.90;;;;;;4935865;29;20182;-86
2023/10/30 05:27:55;;;;;;;3.72;1.40;;;11.20;99.90;;;;;;4935507;29;20217;-86
2023/10/30 05:30:21;;;;;;;6.40;1.85;;;11.20;99.90;;;;;;4935652;29;20202;-86
2023/10/30 05:32:47;;;;;;;7.72;1.48;;;11.20;99.90;;;;;;4952212;29;20188;-86
2023/10/30 05:35:12;;;;;;;3.90;1.50;;;11.20;99.90;;;;;;4954634;29;20169;-86
2023/10/30 05:37:38;;;;;;;4.60;1.33;;;11.20;99.90;;;;;;4954433;29;20209;-86
2023/10/30 05:40:05;;;;;;;5.45;1.50;;;11.20;99.90;;;;;;4954282;29;20221;-87
2023/10/30 05:42:30;;;;;;;3.40;1.60;;;11.20;99.90;;;;;;4954352;29;20281;-86
2023/10/30 05:44:56;;;;;;;5.40;1.42;;;11.20;99.90;;;;;;4954880;29;20210;-86
2023/10/30 05:47:21;;;;;;;4.57;1.60;;;11.30;99.90;;;;;;4954709;29;20184;-86
2023/10/30 05:49:47;;;;;;;4.82;1.50;;;11.30;99.90;;;;;;4954985;29;20189;-87
2023/10/30 05:52:13;;;;;;;5.47;1.98;;;11.20;99.90;;;;;;4954323;29;20185;-86
2023/10/30 05:54:39;;;;;;;3.63;1.77;;;11.20;99.90;;;;;;4955020;29;20177;-86
2023/10/30 05:57:05;;;;;;;6.07;1.77;;;11.10;99.90;;;;;;4954514;29;20186;-86
2023/10/30 05:59:31;;;;;;;4.75;1.45;;;11.10;99.90;;;;;;4953985;29;20214;-86
2023/10/30 06:01:56;;;;;;;4.85;1.60;;;11.10;99.90;;;;;;4944885;29;20354;-88
2023/10/30 06:04:22;;;;;;;4.40;1.48;;;11.10;99.90;;;;;;4935313;29;20179;-86
2023/10/30 06:06:47;;;;;;;4.93;1.50;;;11.10;99.90;;;;;;4935554;29;20224;-86
2023/10/30 06:09:13;;;;;;;3.72;1.20;;;11.10;99.90;;;;;;4935258;29;20205;-86
2023/10/30 06:11:39;;;;;;;2.58;1.40;;;11.10;99.90;;;;;;4935291;29;20293;-86
2023/10/30 06:14:04;;;;;;;7.47;4.38;;;11.10;99.90;;;;;;4935466;29;20174;-86
2023/10/30 06:16:30;;;;;;;5.80;2.10;;;11.10;99.90;;;;;;4935644;29;20197;-86
2023/10/30 06:18:59;;;;;;;4.38;1.67;;;11.10;99.90;;;;;;4935106;29;20212;-86
2023/10/30 06:21:24;;;;;;;7.68;1.63;;;11.10;99.90;;;;;;4937204;29;20218;-87
2023/10/30 06:23:50;;;;;;;6.00;1.38;;;11.10;99.90;;;;;;4938902;29;20189;-87
2023/10/30 06:26:15;;;;;;;3.40;1.63;;;11.10;99.90;;;;;;4938635;29;20184;-87
2023/10/30 06:28:42;;;;;;;3.67;1.30;;;11.10;99.90;;;;;;4938627;29;20184;-86
2023/10/30 06:31:18;;;;;;;3.72;1.38;;;11.10;99.90;;;;;;4940316;29;20206;-87
2023/10/30 06:33:44;;;;;;;4.25;1.40;;;11.10;99.90;;;;;;4958351;29;20646;-87
2023/10/30 06:36:10;;;;;;;2.75;1.25;;;11.10;99.90;;;;;;4957678;29;20192;-88
2023/10/30 06:38:36;;;;;;;3.97;1.60;;;11.10;99.90;;;;;;4957530;29;20197;-86
2023/10/30 06:41:05;;;;;;;2.72;1.40;;;11.10;99.90;;;;;;4957676;29;20269;-87
2023/10/30 06:43:32;;;;;;;7.47;1.83;;;11.10;99.90;;;;;;4958266;29;20181;-86
2023/10/30 06:46:02;;;;;;;3.53;1.40;;;11.10;99.90;;;;;;4957769;29;20272;-87
2023/10/30 06:48:45;;;;;;;7.45;2.13;;;11.00;99.90;;;;;;4957425;29;20264;-87
2023/10/30 06:51:10;;;;;;;4.97;1.63;;;11.00;99.90;;;;;;4943311;29;20217;-86
2023/10/30 06:54:14;;;;;;;7.15;1.80;;;11.10;99.90;;;;;;4956525;29;20181;-86
2023/10/30 06:56:40;;;;;;;5.70;2.30;;;11.00;99.90;;;;;;4958550;29;20177;-87
2023/10/30 06:59:06;;;;;;;6.38;1.63;;;11.00;99.90;;;;;;4940541;29;20670;-86
2023/10/30 07:01:43;;;;;;;4.03;2.28;;;11.00;99.90;;;;;;4938572;29;20209;-86
2023/10/30 07:04:11;;;;;;;3.50;1.80;;;11.00;99.90;;;;;;4938184;29;20182;-86
2023/10/30 07:07:00;;;;;;;5.28;1.85;;;11.10;99.90;;;;;;4938251;29;20210;-86
2023/10/30 07:09:25;;;;;;;5.68;1.80;;;11.10;99.90;;;;;;4937980;29;20182;-86
2023/10/30 07:11:51;;;;;;;5.05;1.85;;;11.10;99.90;;;;;;4949215;29;20240;-86
2023/10/30 07:17:54;;;;;;;4.77;1.33;;;11.10;99.90;;;;;;4958490;29;20193;-87
2023/10/30 07:20:20;;;;;;;3.42;1.55;;;11.20;99.90;;;;;;4954047;29;20206;-86
2023/10/30 07:22:45;;;;;;;6.65;1.70;;;11.20;99.90;;;;;;4937945;29;20197;-86
2023/10/30 07:25:11;;;;;;;3.28;1.70;;;11.20;99.90;;;;;;4937607;29;20194;-86
2023/10/30 07:27:36;;;;;;;5.35;1.80;;;11.20;99.90;;;;;;4937898;29;20182;-86
2023/10/30 07:30:03;;;;;;;4.88;1.75;;;11.20;99.90;;;;;;4937475;29;20209;-86
2023/10/30 07:32:29;;;;;;;5.72;2.13;;;11.30;99.90;;;;;;4936981;29;20193;-86
2023/10/30 07:35:24;;;;;;;6.47;1.80;;;11.30;99.90;;;;;;4937722;29;20183;-85
2023/10/30 07:37:49;;;;;;;4.28;1.50;;;11.30;99.90;;;;;;4937295;29;20257;-86
2023/10/30 07:40:16;;;;;;;3.95;1.92;;;11.30;99.90;;;;;;4937821;29;20293;-86
2023/10/30 07:42:42;;;;;;;6.82;1.90;;;11.30;99.90;;;;;;4938209;29;20182;-86
2023/10/30 07:45:08;;;;;;;6.97;1.70;;;11.30;99.90;;;;;;4937480;29;20181;-85
2023/10/30 07:47:35;;;;;;;3.72;1.70;;;11.30;99.90;;;;;;4937209;29;20226;-85
2023/10/30 07:50:04;;;;;;;7.90;2.10;;;11.30;99.90;;;;;;4937029;29;20221;-86
2023/10/30 07:52:29;;;;;;;4.60;3.80;;;11.30;99.90;;;;;;4954879;29;20182;-86
2023/10/30 07:54:55;;;;;;;3.60;2.05;;;11.40;99.90;;;;;;4957078;29;20182;-86
2023/10/30 07:57:22;;;;;;;6.50;1.95;;;11.50;99.90;;;;;;4957261;29;20189;-86
2023/10/30 07:59:48;;;;;;;4.30;2.13;;;11.60;99.90;;;;;;4956044;29;20609;-86
2023/10/30 08:02:14;;;;;;;5.90;1.60;;;11.70;99.90;;;;;;4955881;29;20184;-85
2023/10/30 08:04:39;;;;;;;4.30;1.83;;;11.70;99.90;;;;;;4956689;29;20576;-85
2023/10/30 08:07:41;;;;;;;4.60;1.80;;;11.70;99.90;;;;;;4957236;29;20178;-86
2023/10/30 08:10:07;;;;;;;5.72;1.90;;;11.80;99.90;;;;;;4955554;29;20205;-86
2023/10/30 08:12:33;;;;;;;3.58;1.60;;;11.90;99.90;;;;;;4956208;29;20185;-86
2023/10/30 08:14:59;;;;;;;4.47;2.00;;;11.90;99.90;;;;;;4941816;29;20265;-87
2023/10/30 08:17:26;;;;;;;6.50;1.60;;;11.90;99.90;;;;;;4942085;29;20197;-86
2023/10/30 08:19:51;;;;;;;4.32;1.80;;;11.90;99.90;;;;;;4940013;29;20206;-86
2023/10/30 08:22:17;;;;;;;6.03;2.45;;;11.80;99.90;;;;;;4937401;29;20198;-88
2023/10/30 08:24:43;;;;;;;5.82;2.78;;;11.80;99.90;;;;;;4936801;29;20178;-87
2023/10/30 08:27:09;;;;;;;3.55;2.63;;;11.90;99.90;;;;;;4936860;29;20178;-88
2023/10/30 08:29:35;;;;;;;7.93;3.85;;;11.90;99.90;;;;;;4936502;29;20179;-88
2023/10/30 08:32:00;;;;;;;7.57;3.60;;;11.90;99.90;;;;;;4951263;29;20217;-88
2023/10/30 08:34:26;;;;;;;6.10;2.42;;;11.90;99.90;;;;;;4955497;29;20182;-88
2023/10/30 08:37:00;;;;;;;3.53;2.05;;;12.00;99.90;;;;;;4956944;29;20208;-88
2023/10/30 08:39:26;;;;;;;4.15;1.77;;;12.10;99.90;;;;;;4955597;29;20276;-88
2023/10/30 08:41:52;;;;;;;4.50;1.63;;;12.30;99.90;;;;;;4945827;29;20237;-88
2023/10/30 08:44:21;;;;;;;4.45;1.50;;;12.60;99.90;;;;;;4948254;29;20178;-88
2023/10/30 08:46:50;;;;;;;2.55;1.60;;;12.60;99.90;;;;;;4956737;29;20232;-88
2023/10/30 08:49:20;;;;;;;3.90;1.40;;;12.80;99.90;;;;;;4958156;29;20614;-88
2023/10/30 08:51:49;;;;;;;3.20;1.50;;;12.80;99.90;;;;;;4958530;29;20209;-88
2023/10/30 08:54:15;;;;;;;6.60;1.60;;;12.80;99.90;;;;;;4967832;29;20188;-88
2023/10/30 08:56:42;;;;;;;4.60;1.60;;;12.90;99.90;;;;;;4956436;29;20189;-88
2023/10/30 08:59:08;;;;;;;4.70;1.40;;;12.90;99.90;;;;;;4955176;29;20233;-88
2023/10/30 09:01:34;;;;;;;4.03;1.50;;;12.90;99.90;;;;;;4952738;29;20285;-89
2023/10/30 09:04:00;;;;;;;4.88;1.63;;;12.90;99.90;;;;;;4936205;29;20178;-88
2023/10/30 09:06:56;;;;;;;2.55;1.40;;;12.90;99.90;;;;;;4936071;29;20237;-85
2023/10/30 09:09:33;;;;;;;2.72;1.10;;;13.10;99.90;;;;;;4935819;29;20531;-88
2023/10/30 09:11:58;;;;;;;2.67;1.38;;;13.20;99.90;;;;;;4936137;29;20703;-87
2023/10/30 09:14:24;;;;;;;3.47;1.35;;;13.50;99.90;;;;;;4935835;29;20186;-88
2023/10/30 09:17:20;;;;;;;3.30;1.40;;;13.60;99.90;;;;;;4935927;29;20186;-88
2023/10/30 09:19:46;;;;;;;4.50;1.60;;;13.90;99.90;;;;;;4943487;29;20209;-88
2023/10/30 09:22:12;;;;;;;3.05;1.50;;;13.90;99.90;;;;;;4954752;28;20189;-86
2023/10/30 09:24:37;;;;;;;2.10;1.27;;;13.90;99.90;;;;;;4955023;28;20657;-88
2023/10/30 09:27:09;;;;;;;3.45;1.70;;;13.80;99.90;;;;;;4945228;28;20310;-88
2023/10/30 09:29:35;;;;;;;2.25;1.30;;;13.80;99.90;;;;;;4935786;29;20174;-88
2023/10/30 09:32:03;;;;;;;2.88;1.23;;;13.90;99.90;;;;;;4935414;29;20206;-88
2023/10/30 09:34:29;;;;;;;2.25;1.10;;;13.90;99.90;;;;;;4935887;29;20178;-88
2023/10/30 09:36:55;;;;;;;1.95;1.42;;;14.00;99.90;;;;;;4935179;29;20182;-88
2023/10/30 09:39:27;;;;;;;2.17;1.50;;;14.10;99.90;;;;;;4935308;29;20202;-88
2023/10/30 09:41:54;;;;;;;2.05;1.25;;;14.40;99.90;;;;;;4935675;29;20202;-88
2023/10/30 09:44:21;;;;;;;3.67;1.30;;;14.70;99.90;;;;;;4919810;29;20186;-88
2023/10/30 09:46:48;;;;;;;4.15;1.40;;;14.90;99.90;;;;;;4935266;29;20188;-88
2023/10/30 09:49:16;;;;;;;5.07;1.70;;;14.90;99.90;;;;;;4935855;29;20190;-88
2023/10/30 09:51:45;;;;;;;2.05;1.00;;;15.10;99.90;;;;;;4934977;29;20210;-88
2023/10/30 09:54:12;;;;;;;3.67;1.50;;;15.10;99.90;;;;;;4936775;29;20233;-88
2023/10/30 09:56:38;;;;;;;4.15;1.30;;;15.10;99.90;;;;;;4935686;29;20186;-88
2023/10/30 09:59:05;;;;;;;1.98;1.10;;;15.20;99.90;;;;;;4935281;29;20206;-88
2023/10/30 10:01:30;;;;;;;2.97;1.40;;;15.10;99.90;;;;;;4943563;29;20757;-89
2023/10/30 10:03:57;;;;;;;1.88;1.75;;;15.10;99.90;;;;;;4954480;29;20260;-88
2023/10/30 10:06:23;;;;;;;5.00;4.05;;;15.10;99.90;;;;;;4955471;29;20174;-88
2023/10/30 10:08:49;;;;;;;4.13;2.90;;;15.10;99.90;;;;;;4954305;29;20240;-88
2023/10/30 10:11:15;;;;;;;4.43;2.88;;;15.00;99.90;;;;;;4954063;29;20220;-88
2023/10/30 10:13:43;;;;;;;5.25;3.08;;;15.00;99.90;;;;;;4954652;29;20280;-88
2023/10/30 10:16:11;;;;;;;8.65;7.75;;;14.90;99.90;;;;;;4954358;29;20245;-88
2023/10/30 10:18:47;;;;;;;5.75;5.15;;;14.80;99.90;;;;;;4954453;29;20209;-88
2023/10/30 10:21:13;;;;;;;6.43;3.20;;;14.70;99.90;;;;;;4949090;29;20210;-88
2023/10/30 10:23:38;;;;;;;3.67;2.72;;;14.60;99.90;;;;;;4935244;29;20182;-88
2023/10/30 10:26:13;;;;;;;2.33;1.92;;;14.50;99.90;;;;;;4935256;29;20186;-88
2023/10/30 10:28:40;;;;;;;5.50;4.53;;;14.50;99.90;;;;;;4935719;29;20212;-88
2023/10/30 10:31:08;;;;;;;4.75;3.78;;;14.50;99.90;;;;;;4934965;29;20233;-88
2023/10/30 10:33:36;;;;;;;5.97;5.38;;;14.70;99.90;;;;;;4935781;29;20183;-88
2023/10/30 10:36:04;;;;;;;5.57;4.85;;;14.70;99.90;;;;;;4935036;29;20641;-88
2023/10/30 10:38:31;;;;;;;3.60;2.70;;;14.70;99.90;;;;;;4935599;29;20209;-88
2023/10/30 10:41:13;;;;;;;5.05;3.03;;;14.90;99.90;;;;;;4942161;29;20248;-88
2023/10/30 10:43:40;;;;;;;2.00;1.80;;;14.80;99.90;;;;;;4940268;29;20701;-88
2023/10/30 10:46:06;;;;;;;4.68;2.88;;;14.80;99.90;;;;;;4934935;29;20217;-88
2023/10/30 10:48:31;;;;;;;4.00;2.85;;;14.90;99.90;;;;;;4935099;29;20229;-88
2023/10/30 10:51:03;;;;;;;6.40;2.30;;;14.90;99.90;;;;;;4935282;29;20237;-88
2023/10/30 10:53:30;;;;;;;4.50;2.58;;;14.90;99.90;;;;;;4934530;29;20185;-88
2023/10/30 10:56:05;;;;;;;4.13;2.22;;;14.90;99.90;;;;;;4934644;29;20183;-88
2023/10/30 10:58:42;;;;;;;5.82;4.68;;;14.90;99.90;;;;;;4935234;29;20210;-88
2023/10/30 11:01:19;;;;;;;6.20;3.15;;;15.00;99.90;;;;;;4934948;29;20194;-88
2023/10/30 11:03:45;;;;;;;5.47;2.92;;;15.10;99.90;;;;;;4934717;29;20611;-88
2023/10/30 11:06:13;;;;;;;2.33;1.80;;;15.10;99.90;;;;;;4934926;29;20228;-88
2023/10/30 11:08:50;;;;;;;2.35;1.80;;;15.10;99.90;;;;;;4937064;29;20198;-89
2023/10/30 11:11:50;;;;;;;1.95;1.60;;;15.10;99.90;;;;;;4938089;29;20202;-89
2023/10/30 11:14:31;;;;;;;2.05;1.67;;;15.20;99.90;;;;;;4937945;29;20323;-89
2023/10/30 11:17:02;;;;;;;3.63;2.40;;;15.30;99.90;;;;;;4938903;29;20182;-88
2023/10/30 11:19:28;;;;;;;10.73;8.23;;;15.30;99.90;;;;;;4937488;29;20213;-86
2023/10/30 11:21:55;;;;;;;10.85;9.18;;;15.20;99.90;;;;;;4937886;29;20217;-86
2023/10/30 11:24:41;;;;;;;13.80;12.40;;;15.10;99.90;;;;;;4938479;29;20182;-86
2023/10/30 11:27:25;;;;;;;11.05;9.80;;;15.10;99.90;;;;;;4938491;29;20326;-86
2023/10/30 11:30:01;;;;;;;5.55;3.80;;;15.10;99.90;;;;;;4938994;29;20532;-86
2023/10/30 11:32:32;;;;;;;2.85;2.42;;;15.10;99.90;;;;;;4938020;29;20553;-86
2023/10/30 11:35:20;;;;;;;4.43;1.67;;;15.10;99.90;;;;;;4938782;29;20277;-86
2023/10/30 11:37:46;;;;;;;3.38;1.20;;;14.80;99.90;;;;;;4937873;29;20209;-86
2023/10/30 11:40:15;;;;;;;3.05;1.63;;;14.90;99.90;;;;;;4938229;29;20262;-86
2023/10/30 11:42:43;;;;;;;2.83;1.10;;;15.10;99.90;;;;;;4939217;29;20185;-88
2023/10/30 11:45:19;;;;;;;2.63;1.10;;;15.30;99.90;;;;;;4937784;29;20186;-89
2023/10/30 11:48:27;;;;;;;10.30;9.30;;;15.30;99.90;;;;;;4937275;29;20182;-89
2023/10/30 11:50:54;;;;;;;2.97;1.98;;;15.40;99.90;;;;;;4937870;29;20674;-89
2023/10/30 11:53:21;;;;;;;2.38;1.20;;;15.50;99.90;;;;;;4938066;29;20177;-89
2023/10/30 11:55:50;;;;;;;5.55;4.30;;;15.60;99.90;;;;;;4937256;29;20262;-88
2023/10/30 11:58:18;;;;;;;12.07;10.25;;;15.60;99.90;;;;;;4938314;29;20583;-89
2023/10/30 12:00:45;;;;;;;11.23;6.78;;;15.60;99.90;;;;;;4936920;29;20198;-88
2023/10/30 12:03:53;;;;;;;1.23;1.13;;;15.70;99.90;;;;;;4937949;29;20662;-89
2023/10/30 12:06:19;;;;;;;3.95;1.38;;;15.70;99.90;;;;;;4938066;29;20226;-88
2023/10/30 12:08:44;;;;;;;2.30;1.75;;;15.60;99.90;;;;;;4937280;29;20210;-88
2023/10/30 12:11:10;;;;;;;14.55;10.98;;;15.70;99.90;;;;;;4937662;29;20280;-88
2023/10/30 12:13:38;;;;;;;14.15;8.82;;;15.70;99.90;;;;;;4937057;29;20194;-88
2023/10/30 12:16:05;;;;;;;3.10;2.13;;;15.90;99.90;;;;;;4937171;29;20186;-88
2023/10/30 12:18:31;;;;;;;1.40;1.30;;;16.00;99.90;;;;;;4936643;29;20238;-88
2023/10/30 12:20:57;;;;;;;2.40;1.70;;;16.00;99.90;;;;;;4936753;29;20207;-88
2023/10/30 12:23:23;;;;;;;4.43;1.65;;;16.00;99.90;;;;;;4937259;29;20175;-88
2023/10/30 12:25:51;;;;;;;2.30;1.30;;;15.90;99.90;;;;;;4936731;29;20307;-89
2023/10/30 12:28:16;;;;;;;3.33;1.58;;;15.90;99.90;;;;;;4937609;29;20178;-88
2023/10/30 12:30:43;;;;;;;2.33;1.08;;;15.80;99.90;;;;;;4936675;29;20216;-89
2023/10/30 12:33:13;;;;;;;2.38;1.83;;;15.70;99.90;;;;;;4937565;29;20281;-89
2023/10/30 12:35:41;;;;;;;1.52;1.25;;;15.70;99.90;;;;;;4937624;29;20178;-88
2023/10/30 12:38:14;;;;;;;5.75;2.10;;;15.70;99.90;;;;;;4936533;29;20174;-88
2023/10/30 12:40:43;;;;;;;2.13;1.70;;;15.80;99.90;;;;;;4937072;29;20198;-88
2023/10/30 12:43:09;;;;;;;3.95;2.40;;;15.90;99.90;;;;;;4937032;29;20182;-89
2023/10/30 12:45:38;;;;;;;4.40;1.73;;;16.00;99.90;;;;;;4936516;29;20175;-87
2023/10/30 12:48:04;;;;;;;2.38;1.30;;;15.90;99.90;;;;;;4936910;29;20178;-89
2023/10/30 12:50:29;;;;;;;1.63;0.98;;;16.00;99.90;;;;;;4936602;29;20198;-89
2023/10/30 12:52:55;;;;;;;1.58;0.88;;;15.80;99.90;;;;;;4936411;29;20181;-88
2023/10/30 12:55:21;;;;;;;0.77;0.77;;;15.80;99.90;;;;;;4936464;29;20188;-88
2023/10/30 12:57:47;;;;;;;2.00;1.13;;;15.50;99.90;;;;;;4935971;29;20181;-88
2023/10/30 13:00:13;;;;;;;1.13;0.90;;;15.40;99.90;;;;;;4936627;29;20218;-88
2023/10/30 13:02:39;;;;;;;7.43;1.05;;;15.30;99.90;;;;;;4937096;29;20178;-88
2023/10/30 13:05:05;;;;;;;1.95;1.00;;;15.30;99.90;;;;;;4936115;29;20186;-88
2023/10/30 13:07:31;;;;;;;3.70;0.98;;;15.20;99.90;;;;;;4936604;29;20648;-88
2023/10/30 13:09:56;;;;;;;1.05;0.80;;;15.20;99.90;;;;;;4936800;29;20189;-88
2023/10/30 13:12:22;;;;;;;3.08;1.10;;;15.10;99.90;;;;;;4936224;29;20186;-88
2023/10/30 13:14:48;;;;;;;4.28;1.05;;;15.00;99.90;;;;;;4935841;29;20186;-88